createdAt,value
2022-09-03T00:01:39.015Z,101557.44
2022-09-03T00:04:53.060Z,101563.47
2022-09-03T00:08:04.264Z,101560.38
2022-09-03T00:11:14.926Z,101560.06
2022-09-03T00:14:24.183Z,101556.75
2022-09-03T00:17:32.182Z,101560.03
2022-09-03T00:20:40.270Z,101551.41
2022-09-03T00:23:45.409Z,101556.88
2022-09-03T00:26:54.699Z,101557.91
2022-09-03T00:30:03.479Z,101551.22
2022-09-03T00:33:14.674Z,101551.50
2022-09-03T00:36:21.184Z,101556.69
2022-09-03T00:39:26.693Z,101560.56
2022-09-03T00:42:40.907Z,101561.13
2022-09-03T00:45:52.754Z,101560.94
2022-09-03T00:49:22.965Z,101556.72
2022-09-03T00:52:39.492Z,101556.44
2022-09-03T00:55:58.824Z,101553.31
2022-09-03T00:59:15.415Z,101556.34
2022-09-03T01:02:28.761Z,101549.47
2022-09-03T01:05:43.399Z,101541.69
2022-09-03T01:09:10.395Z,101535.13
2022-09-03T01:12:25.070Z,101542.22
2022-09-03T01:15:37.074Z,101541.38
2022-09-03T01:18:49.587Z,101541.66
2022-09-03T01:22:20.917Z,101537.94
2022-09-03T01:25:38.761Z,101526.91
2022-09-03T01:28:56.553Z,101540.38
2022-09-03T01:32:07.473Z,101537.53
2022-09-03T01:35:22.624Z,101541.97
2022-09-03T01:38:34.123Z,101535.34
2022-09-03T01:42:09.414Z,101531.38
2022-09-03T01:45:23.413Z,101527.91
2022-09-03T01:48:40.912Z,101530.88
2022-09-03T01:51:45.241Z,101528.13
2022-09-03T01:55:07.258Z,101530.56
2022-09-03T01:58:15.711Z,101534.16
2022-09-03T02:01:26.194Z,101534.34
2022-09-03T02:04:29.301Z,101529.03
2022-09-03T02:07:34.856Z,101536.72
2022-09-03T02:10:42.435Z,101536.13
2022-09-03T02:13:49.463Z,101535.28
2022-09-03T02:16:54.486Z,101537.16
2022-09-03T02:19:57.523Z,101540.41
2022-09-03T02:23:00.797Z,101539.31
2022-09-03T02:26:04.818Z,101534.72
2022-09-03T02:29:07.758Z,101534.34
2022-09-03T02:32:11.841Z,101536.16
2022-09-03T02:35:14.696Z,101537.81
2022-09-03T02:38:19.218Z,101542.50
2022-09-03T02:41:22.911Z,101538.66
2022-09-03T02:44:31.671Z,101538.59
2022-09-03T02:47:39.409Z,101525.25
2022-09-03T02:50:42.826Z,101535.19
2022-09-03T02:53:45.703Z,101531.34
2022-09-03T02:56:49.766Z,101535.19
2022-09-03T02:59:52.660Z,101536.84
2022-09-03T03:02:57.531Z,101532.16
2022-09-03T03:06:03.511Z,101534.91
2022-09-03T03:09:07.052Z,101532.94
2022-09-03T03:12:10.542Z,101535.38
2022-09-03T03:15:13.215Z,101534.53
2022-09-03T03:18:17.736Z,101537.28
2022-09-03T03:21:20.862Z,101539.78
2022-09-03T03:24:23.700Z,101535.13
2022-09-03T03:27:27.838Z,101536.22
2022-09-03T03:30:31.004Z,101538.03
2022-09-03T03:33:35.382Z,101548.38
2022-09-03T03:36:38.278Z,101543.94
2022-09-03T03:39:40.978Z,101537.28
2022-09-03T03:42:44.336Z,101537.00
2022-09-03T03:45:57.707Z,101540.25
2022-09-03T03:49:02.833Z,101545.09
2022-09-03T03:52:05.664Z,101553.63
2022-09-03T03:55:08.874Z,101550.41
2022-09-03T03:58:11.652Z,101553.09
2022-09-03T04:01:16.979Z,101544.75
2022-09-03T04:04:21.175Z,101556.38
2022-09-03T04:07:23.837Z,101556.63
2022-09-03T04:10:26.555Z,101549.03
2022-09-03T04:13:30.828Z,101547.63
2022-09-03T04:16:33.994Z,101547.19
2022-09-03T04:19:38.422Z,101549.47
2022-09-03T04:22:41.283Z,101547.66
2022-09-03T04:25:45.000Z,101548.16
2022-09-03T04:28:48.582Z,101543.22
2022-09-03T04:32:08.606Z,101540.66
2022-09-03T04:35:12.770Z,101538.56
2022-09-03T04:38:15.413Z,101545.41
2022-09-03T04:41:19.955Z,101535.41
2022-09-03T04:44:22.575Z,101537.19
2022-09-03T04:47:25.484Z,101539.72
2022-09-03T04:50:30.936Z,101547.28
2022-09-03T04:53:35.117Z,101549.66
2022-09-03T04:56:39.779Z,101552.53
2022-09-03T04:59:42.898Z,101549.28
2022-09-03T05:02:47.032Z,101547.47
2022-09-03T05:05:56.688Z,101551.69
2022-09-03T05:09:00.198Z,101557.88
2022-09-03T05:12:02.858Z,101554.72
2022-09-03T05:15:06.722Z,101556.50
2022-09-03T05:18:09.389Z,101553.03
2022-09-03T05:21:15.502Z,101557.66
2022-09-03T05:24:18.641Z,101554.41
2022-09-03T05:27:21.364Z,101552.41
2022-09-03T05:30:24.406Z,101556.97
2022-09-03T05:33:28.027Z,101556.41
2022-09-03T05:36:34.658Z,101554.22
2022-09-03T05:39:37.713Z,101548.13
2022-09-03T05:42:40.420Z,101543.88
2022-09-03T05:45:43.313Z,101550.81
2022-09-03T05:48:46.026Z,101556.38
2022-09-03T05:51:50.142Z,101556.00
2022-09-03T05:54:52.788Z,101556.19
2022-09-03T05:57:55.713Z,101554.84
2022-09-03T06:00:58.611Z,101563.72
2022-09-03T06:04:03.393Z,101557.59
2022-09-03T06:07:07.521Z,101564.69
2022-09-03T06:10:12.838Z,101563.50
2022-09-03T06:13:15.880Z,101559.09
2022-09-03T06:16:18.595Z,101561.13
2022-09-03T06:19:31.884Z,101557.44
2022-09-03T06:22:35.868Z,101560.38
2022-09-03T06:25:38.652Z,101557.91
2022-09-03T06:28:43.424Z,101558.34
2022-09-03T06:31:46.326Z,101554.75
2022-09-03T06:34:48.991Z,101553.72
2022-09-03T06:37:53.250Z,101555.47
2022-09-03T06:40:56.966Z,101556.31
2022-09-03T06:44:02.412Z,101563.38
2022-09-03T06:47:05.290Z,101555.31
2022-09-03T06:50:08.632Z,101555.31
2022-09-03T06:53:12.625Z,101566.63
2022-09-03T06:56:17.407Z,101568.88
2022-09-03T06:59:20.033Z,101564.44
2022-09-03T07:02:23.374Z,101561.41
2022-09-03T07:05:28.647Z,101562.63
2022-09-03T07:08:33.502Z,101571.88
2022-09-03T07:11:37.505Z,101562.34
2022-09-03T07:14:40.311Z,101560.28
2022-09-03T07:17:42.940Z,101556.31
2022-09-03T07:20:45.685Z,101562.66
2022-09-03T07:23:51.715Z,101569.63
2022-09-03T07:26:55.048Z,101565.06
2022-09-03T07:29:57.686Z,101572.84
2022-09-03T07:33:04.201Z,101566.66
2022-09-03T07:36:09.343Z,101575.72
2022-09-03T07:42:16.600Z,101572.19
2022-09-03T07:45:19.633Z,101563.22
2022-09-03T07:48:22.433Z,101567.09
2022-09-03T07:51:27.893Z,101568.88
2022-09-03T07:54:31.883Z,101577.44
2022-09-03T07:57:34.891Z,101576.41
2022-09-03T08:00:37.553Z,101581.09
2022-09-03T08:03:44.379Z,101572.69
2022-09-03T08:06:48.223Z,101566.72
2022-09-03T08:09:52.362Z,101565.19
2022-09-03T08:12:55.173Z,101571.09
2022-09-03T08:16:00.255Z,101565.59
2022-09-03T08:19:03.190Z,101563.88
2022-09-03T08:22:06.107Z,101569.81
2022-09-03T08:25:13.737Z,101566.75
2022-09-03T08:28:16.677Z,101563.06
2022-09-03T08:31:21.399Z,101560.84
2022-09-03T08:34:24.395Z,101562.97
2022-09-03T08:37:29.336Z,101555.53
2022-09-03T08:40:35.719Z,101556.56
2022-09-03T08:43:55.259Z,101559.53
2022-09-03T08:47:02.175Z,101548.03
2022-09-03T08:50:13.147Z,101548.53
2022-09-03T08:53:22.433Z,101546.31
2022-09-03T08:56:29.902Z,101551.72
2022-09-03T08:59:33.441Z,101542.38
2022-09-03T09:02:47.275Z,101540.66
2022-09-03T09:05:56.740Z,101541.28
2022-09-03T09:09:08.940Z,101534.78
2022-09-03T09:12:22.831Z,101546.31
2022-09-03T09:15:36.656Z,101536.78
2022-09-03T09:18:56.435Z,101542.78
2022-09-03T09:22:03.989Z,101548.56
2022-09-03T09:25:14.297Z,101535.88
2022-09-03T09:28:21.317Z,101522.81
2022-09-03T09:31:24.197Z,101515.84
2022-09-03T09:34:27.830Z,101519.59
2022-09-03T09:37:30.469Z,101522.41
2022-09-03T09:40:35.651Z,101514.03
2022-09-03T09:43:39.989Z,101508.56
2022-09-03T09:46:43.070Z,101511.88
2022-09-03T09:49:54.411Z,101507.88
2022-09-03T09:53:05.473Z,101510.94
2022-09-03T09:56:09.737Z,101501.34
2022-09-03T09:59:16.408Z,101504.00
2022-09-03T10:02:27.506Z,101503.03
2022-09-03T10:05:33.730Z,101509.13
2022-09-03T10:08:36.787Z,101492.28
2022-09-03T10:11:42.730Z,101490.69
2022-09-03T10:14:52.456Z,101490.44
2022-09-03T10:18:01.642Z,101474.69
2022-09-03T10:21:11.372Z,101480.78
2022-09-03T10:24:32.953Z,101489.13
2022-09-03T10:27:37.375Z,101483.28
2022-09-03T10:31:01.311Z,101481.47
2022-09-03T10:34:09.927Z,101488.00
2022-09-03T10:37:22.928Z,101478.84
2022-09-03T10:40:33.095Z,101469.63
2022-09-03T10:44:01.083Z,101462.56
2022-09-03T10:47:21.703Z,101467.19
2022-09-03T10:50:29.101Z,101464.97
2022-09-03T10:53:46.615Z,101457.81
2022-09-03T10:57:02.995Z,101457.63
2022-09-03T11:00:09.804Z,101453.59
2022-09-03T11:03:31.937Z,101459.94
2022-09-03T11:06:44.830Z,101451.13
2022-09-03T11:09:55.180Z,101442.84
2022-09-03T11:13:07.803Z,101444.56
2022-09-03T11:16:16.038Z,101441.78
2022-09-03T11:19:27.879Z,101443.22
2022-09-03T11:22:32.292Z,101451.09
2022-09-03T11:25:37.957Z,101454.03
2022-09-03T11:28:49.377Z,101443.03
2022-09-03T11:31:59.766Z,101447.63
2022-09-03T11:35:15.277Z,101433.25
2022-09-03T11:38:27.480Z,101436.06
2022-09-03T11:41:35.716Z,101429.44
2022-09-03T11:44:47.940Z,101427.50
2022-09-03T11:47:55.332Z,101427.53
2022-09-03T11:50:59.375Z,101429.00
2022-09-03T11:54:04.959Z,101433.47
2022-09-03T11:57:13.220Z,101422.09
2022-09-03T12:00:22.595Z,101412.44
2022-09-03T12:03:29.631Z,101414.06
2022-09-03T12:06:49.749Z,101409.13
2022-09-03T12:10:04.325Z,101403.09
2022-09-03T12:13:30.775Z,101400.75
2022-09-03T12:16:50.866Z,101407.47
2022-09-03T12:19:55.927Z,101403.88
2022-09-03T12:23:00.145Z,101399.31
2022-09-03T12:26:06.349Z,101401.81
2022-09-03T12:29:23.481Z,101394.47
2022-09-03T12:32:37.103Z,101398.19
2022-09-03T12:39:12.324Z,101397.69
2022-09-03T12:42:21.852Z,101388.66
2022-09-03T12:46:09.898Z,101389.47
2022-09-03T12:52:27.825Z,101389.44
2022-09-03T12:55:37.493Z,101378.41
2022-09-03T12:58:49.871Z,101376.09
2022-09-03T13:01:56.156Z,101365.75
2022-09-03T13:04:59.152Z,101360.94
2022-09-03T13:08:06.793Z,101357.66
2022-09-03T13:11:11.218Z,101361.28
2022-09-03T13:14:18.647Z,101371.31
2022-09-03T13:17:56.396Z,101353.00
2022-09-03T13:21:14.579Z,101359.63
2022-09-03T13:24:58.474Z,101352.56
2022-09-03T13:28:16.810Z,101348.72
2022-09-03T13:31:31.721Z,101355.84
2022-09-03T13:34:38.614Z,101356.47
2022-09-03T13:37:46.282Z,101350.56
2022-09-03T13:40:55.641Z,101355.50
2022-09-03T13:44:05.726Z,101353.22
2022-09-03T13:47:19.642Z,101368.34
2022-09-03T13:50:27.251Z,101359.13
2022-09-03T13:53:41.256Z,101343.97
2022-09-03T13:56:52.775Z,101347.63
2022-09-03T14:00:06.754Z,101345.28
2022-09-03T14:03:15.542Z,101340.38
2022-09-03T14:06:33.357Z,101330.66
2022-09-03T14:09:43.048Z,101332.78
2022-09-03T14:12:52.003Z,101334.56
2022-09-03T14:16:06.069Z,101327.66
2022-09-03T14:19:17.066Z,101327.91
2022-09-03T14:22:24.098Z,101324.81
2022-09-03T14:25:28.346Z,101322.03
2022-09-03T14:28:35.442Z,101332.13
2022-09-03T14:31:58.900Z,101317.78
2022-09-03T14:35:16.059Z,101314.50
2022-09-03T14:38:52.736Z,101316.09
2022-09-03T14:42:11.993Z,101315.16
2022-09-03T14:45:25.646Z,101306.59
2022-09-03T14:48:58.805Z,101307.06
2022-09-03T14:52:20.752Z,101311.69
2022-09-03T14:55:53.169Z,101303.09
2022-09-03T14:59:19.083Z,101314.66
2022-09-03T15:02:54.287Z,101303.41
2022-09-03T15:06:11.707Z,101310.50
2022-09-03T15:09:28.703Z,101315.59
2022-09-03T15:12:36.901Z,101307.75
2022-09-03T15:15:55.643Z,101301.66
2022-09-03T15:19:11.635Z,101302.31
2022-09-03T15:22:29.613Z,101307.44
2022-09-03T15:25:48.794Z,101310.72
2022-09-03T15:29:04.897Z,101294.59
2022-09-03T15:32:16.976Z,101312.28
2022-09-03T15:35:38.120Z,101312.03
2022-09-03T15:38:49.056Z,101305.03
2022-09-03T15:41:55.994Z,101301.53
2022-09-03T15:45:05.497Z,101300.50
2022-09-03T15:48:21.361Z,101299.47
2022-09-03T15:51:27.950Z,101305.59
2022-09-03T15:54:44.002Z,101308.56
2022-09-03T15:57:55.571Z,101311.31
2022-09-03T16:01:03.329Z,101307.72
2022-09-03T16:04:20.761Z,101310.66
2022-09-03T16:07:27.626Z,101314.19
2022-09-03T16:10:58.773Z,101309.91
2022-09-03T16:14:07.743Z,101307.44
2022-09-03T16:17:22.181Z,101312.63
2022-09-03T16:20:29.717Z,101313.31
2022-09-03T16:23:39.128Z,101308.84
2022-09-03T16:26:52.180Z,101308.34
2022-09-03T16:30:01.854Z,101306.56
2022-09-03T16:33:21.545Z,101310.44
2022-09-03T16:36:35.993Z,101310.38
2022-09-03T16:39:51.938Z,101306.66
2022-09-03T16:43:18.121Z,101310.25
2022-09-03T16:46:37.417Z,101312.00
2022-09-03T16:49:51.624Z,101314.78
2022-09-03T16:53:06.172Z,101306.81
2022-09-03T16:56:25.915Z,101318.22
2022-09-03T16:59:48.892Z,101322.03
2022-09-03T17:03:25.810Z,101309.19
2022-09-03T17:06:41.661Z,101307.41
2022-09-03T17:09:59.837Z,101306.13
2022-09-03T17:13:19.759Z,101319.56
2022-09-03T17:16:36.989Z,101311.34
2022-09-03T17:19:49.697Z,101310.44
2022-09-03T17:23:04.776Z,101316.56
2022-09-03T17:26:13.235Z,101310.47
2022-09-03T17:29:31.825Z,101309.19
2022-09-03T17:33:04.131Z,101322.59
2022-09-03T17:36:14.306Z,101318.09
2022-09-03T17:39:46.473Z,101321.59
2022-09-03T17:42:57.283Z,101324.38
2022-09-03T17:46:13.438Z,101328.31
2022-09-03T17:49:24.230Z,101327.38
2022-09-03T17:52:32.271Z,101334.06
2022-09-03T17:55:38.468Z,101325.50
2022-09-03T17:58:46.023Z,101334.81
2022-09-03T18:01:54.135Z,101336.03
2022-09-03T18:05:03.016Z,101340.13
2022-09-03T18:08:10.117Z,101349.41
2022-09-03T18:11:19.653Z,101346.44
2022-09-03T18:14:27.432Z,101350.94
2022-09-03T18:17:37.078Z,101353.22
2022-09-03T18:21:22.907Z,101357.75
2022-09-03T18:24:51.056Z,101374.16
2022-09-03T18:28:16.715Z,101371.75
2022-09-03T18:31:37.251Z,101378.44
2022-09-03T18:34:57.937Z,101375.22
2022-09-03T18:38:21.233Z,101375.28
2022-09-03T18:41:59.709Z,101375.38
2022-09-03T18:45:41.978Z,101379.91
2022-09-03T18:49:15.957Z,101379.38
2022-09-03T18:52:45.557Z,101384.69
2022-09-03T18:56:20.365Z,101377.13
2022-09-03T19:00:02.205Z,101388.09
2022-09-03T19:03:53.895Z,101386.75
2022-09-03T19:07:22.360Z,101387.13
2022-09-03T19:10:47.009Z,101382.78
2022-09-03T19:14:10.147Z,101385.56
2022-09-03T19:17:38.863Z,101380.59
2022-09-03T19:21:04.000Z,101385.34
2022-09-03T19:24:24.490Z,101391.88
2022-09-03T19:27:59.337Z,101391.91
2022-09-03T19:31:43.967Z,101403.13
2022-09-03T19:35:20.469Z,101396.03
2022-09-03T19:38:48.324Z,101387.81
2022-09-03T19:42:15.109Z,101388.09
2022-09-03T19:45:42.710Z,101399.06
2022-09-03T19:49:18.299Z,101400.56
2022-09-03T19:52:46.346Z,101407.53
2022-09-03T19:56:11.826Z,101410.09
2022-09-03T19:59:36.928Z,101409.81
2022-09-03T20:02:58.928Z,101419.66
2022-09-03T20:06:23.316Z,101412.72
2022-09-03T20:09:51.338Z,101419.97
2022-09-03T20:13:04.517Z,101428.03
2022-09-03T20:16:14.263Z,101431.13
2022-09-03T20:19:26.424Z,101424.97
2022-09-03T20:22:34.468Z,101431.47
2022-09-03T20:25:58.804Z,101430.69
2022-09-03T20:29:23.749Z,101429.03
2022-09-03T20:32:48.890Z,101432.31
2022-09-03T20:36:08.315Z,101428.28
2022-09-03T20:39:25.418Z,101430.91
2022-09-03T20:42:53.769Z,101429.78
2022-09-03T20:46:09.290Z,101438.09
2022-09-03T20:49:20.281Z,101433.38
2022-09-03T20:52:32.125Z,101440.50
2022-09-03T20:55:41.778Z,101438.88
2022-09-03T20:58:52.245Z,101436.91
2022-09-03T21:02:01.317Z,101446.97
2022-09-03T21:05:15.249Z,101444.34
2022-09-03T21:08:32.668Z,101441.94
2022-09-03T21:11:43.203Z,101441.34
2022-09-03T21:14:52.409Z,101442.78
2022-09-03T21:18:05.625Z,101442.00
2022-09-03T21:21:17.481Z,101445.91
2022-09-03T21:24:23.634Z,101449.25
2022-09-03T21:27:42.499Z,101448.41
2022-09-03T21:30:49.768Z,101449.22
2022-09-03T21:33:59.330Z,101448.47
2022-09-03T21:37:05.546Z,101450.72
2022-09-03T21:40:13.412Z,101460.69
2022-09-03T21:43:30.198Z,101464.59
2022-09-03T21:46:38.887Z,101456.84
2022-09-03T21:49:57.001Z,101467.19
2022-09-03T21:53:08.332Z,101466.38
2022-09-03T21:56:22.707Z,101470.81
2022-09-03T21:59:55.172Z,101460.56
2022-09-03T22:02:59.375Z,101463.88
2022-09-03T22:06:07.605Z,101468.66
2022-09-03T22:09:14.682Z,101465.16
2022-09-03T22:12:23.376Z,101474.88
2022-09-03T22:15:29.956Z,101471.44
2022-09-03T22:18:37.837Z,101461.75
2022-09-03T22:21:50.341Z,101475.69
2022-09-03T22:25:04.684Z,101479.59
2022-09-03T22:28:14.327Z,101481.88
2022-09-03T22:31:25.658Z,101481.47
2022-09-03T22:34:44.413Z,101491.56
2022-09-03T22:38:02.294Z,101485.75
2022-09-03T22:41:16.032Z,101489.06
2022-09-03T22:44:32.321Z,101494.09
2022-09-03T22:47:49.371Z,101495.25
2022-09-03T22:50:57.747Z,101493.81
2022-09-03T22:54:11.861Z,101495.81
2022-09-03T22:57:16.982Z,101505.47
2022-09-03T23:00:21.088Z,101503.56
2022-09-03T23:03:33.976Z,101506.56
2022-09-03T23:06:40.961Z,101506.00
2022-09-03T23:09:46.566Z,101512.38
2022-09-03T23:12:53.278Z,101505.97
2022-09-03T23:16:04.089Z,101509.56
2022-09-03T23:22:24.565Z,101505.81
2022-09-03T23:25:33.898Z,101512.44
2022-09-03T23:28:39.512Z,101509.13
2022-09-03T23:31:45.034Z,101513.34
2022-09-03T23:34:49.222Z,101515.75
2022-09-03T23:38:06.550Z,101518.53
2022-09-03T23:41:17.463Z,101512.22
2022-09-03T23:44:38.188Z,101505.28
2022-09-03T23:47:45.619Z,101518.84
2022-09-03T23:51:01.560Z,101521.59
2022-09-03T23:54:14.157Z,101519.06
2022-09-03T23:57:25.335Z,101510.25
